sensor_id;sensor_type;location;lat;lon;timestamp;pressure;altitude;pressure_sealevel;temperature;humidity
47710;BME280;33473;51.640;5.892;2023-04-27T00:09:07;101900;;;9.6;48.0
47710;BME280;33473;51.640;5.892;2023-04-27T00:22:26;102000;;;9.4;47.0
47710;BME280;33473;51.640;5.892;2023-04-27T00:35:46;102000;;;9.2;48.0
47710;BME280;33473;51.640;5.892;2023-04-27T00:49:06;102000;;;8.9;49.0
47710;BME280;33473;51.640;5.892;2023-04-27T01:02:25;102000;;;8.9;49.0
47710;BME280;33473;51.640;5.892;2023-04-27T01:15:45;102000;;;8.8;49.0
47710;BME280;33473;51.640;5.892;2023-04-27T01:29:05;102000;;;8.5;49.0
47710;BME280;33473;51.640;5.892;2023-04-27T01:42:24;102000;;;8.2;49.0
47710;BME280;33473;51.640;5.892;2023-04-27T01:55:44;102000;;;8.1;50.0
47710;BME280;33473;51.640;5.892;2023-04-27T02:09:04;102000;;;8.0;51.0
47710;BME280;33473;51.640;5.892;2023-04-27T02:22:24;101900;;;8.0;51.0
47710;BME280;33473;51.640;5.892;2023-04-27T02:35:43;101900;;;8.0;51.0
47710;BME280;33473;51.640;5.892;2023-04-27T02:49:03;101900;;;7.9;50.0
47710;BME280;33473;51.640;5.892;2023-04-27T03:02:23;101900;;;7.7;50.0
47710;BME280;33473;51.640;5.892;2023-04-27T03:15:42;101900;;;7.7;51.0
47710;BME280;33473;51.640;5.892;2023-04-27T03:29:02;101900;;;7.8;51.0
47710;BME280;33473;51.640;5.892;2023-04-27T03:42:22;101900;;;7.7;51.0
47710;BME280;33473;51.640;5.892;2023-04-27T03:55:41;102000;;;7.6;50.0
47710;BME280;33473;51.640;5.892;2023-04-27T04:09:01;102000;;;7.5;51.0
47710;BME280;33473;51.640;5.892;2023-04-27T04:22:21;102000;;;7.4;51.0
47710;BME280;33473;51.640;5.892;2023-04-27T04:35:40;102000;;;7.3;51.0
47710;BME280;33473;51.640;5.892;2023-04-27T04:49:00;102000;;;7.3;51.0
47710;BME280;33473;51.640;5.892;2023-04-27T05:02:20;102000;;;7.4;52.0
47710;BME280;33473;51.640;5.892;2023-04-27T05:15:39;102000;;;7.6;52.0
47710;BME280;33473;51.640;5.892;2023-04-27T05:28:59;102000;;;8.0;53.0
47710;BME280;33473;51.640;5.892;2023-04-27T05:42:19;102000;;;8.6;53.0
47710;BME280;33473;51.640;5.892;2023-04-27T05:55:38;102000;;;9.3;53.0
47710;BME280;33473;51.640;5.892;2023-04-27T06:08:58;102000;;;10.2;52.0
47710;BME280;33473;51.640;5.892;2023-04-27T06:22:17;102000;;;10.9;49.0
47710;BME280;33473;51.640;5.892;2023-04-27T06:35:37;102000;;;11.8;46.0
47710;BME280;33473;51.640;5.892;2023-04-27T06:48:57;102000;;;12.7;43.0
47710;BME280;33473;51.640;5.892;2023-04-27T07:02:16;102000;;;13.9;40.0
47710;BME280;33473;51.640;5.892;2023-04-27T07:15:36;102000;;;14.8;37.0
47710;BME280;33473;51.640;5.892;2023-04-27T07:28:56;102000;;;15.8;36.0
47710;BME280;33473;51.640;5.892;2023-04-27T07:42:15;102000;;;16.5;33.0
47710;BME280;33473;51.640;5.892;2023-04-27T07:55:35;102000;;;17.1;32.0
47710;BME280;33473;51.640;5.892;2023-04-27T08:08:55;102000;;;16.6;32.0
47710;BME280;33473;51.640;5.892;2023-04-27T08:22:15;102000;;;17.1;32.0
47710;BME280;33473;51.640;5.892;2023-04-27T08:35:34;102000;;;17.6;30.0
47710;BME280;33473;51.640;5.892;2023-04-27T08:48:54;102000;;;17.5;30.0
47710;BME280;33473;51.640;5.892;2023-04-27T09:02:14;102000;;;18.1;30.0
47710;BME280;33473;51.640;5.892;2023-04-27T09:15:33;102000;;;18.9;29.0
47710;BME280;33473;51.640;5.892;2023-04-27T09:28:53;102000;;;19.0;27.0
47710;BME280;33473;51.640;5.892;2023-04-27T09:42:13;102000;;;18.4;29.0
47710;BME280;33473;51.640;5.892;2023-04-27T09:55:32;101900;;;19.1;28.0
47710;BME280;33473;51.640;5.892;2023-04-27T10:08:52;101900;;;19.8;25.0
47710;BME280;33473;51.640;5.892;2023-04-27T10:22:12;101900;;;20.2;27.0
47710;BME280;33473;51.640;5.892;2023-04-27T10:35:31;101900;;;21.0;24.0
47710;BME280;33473;51.640;5.892;2023-04-27T10:48:51;101900;;;21.0;23.0
47710;BME280;33473;51.640;5.892;2023-04-27T11:02:11;101900;;;22.2;21.0
47710;BME280;33473;51.640;5.892;2023-04-27T11:15:31;101900;;;21.9;21.0
47710;BME280;33473;51.640;5.892;2023-04-27T11:28:50;101900;;;22.1;20.0
47710;BME280;33473;51.640;5.892;2023-04-27T11:42:10;101900;;;22.2;20.0
47710;BME280;33473;51.640;5.892;2023-04-27T11:55:29;101800;;;21.0;21.0
47710;BME280;33473;51.640;5.892;2023-04-27T12:08:49;101900;;;21.7;25.0
47710;BME280;33473;51.640;5.892;2023-04-27T12:22:09;101800;;;21.9;23.0
47710;BME280;33473;51.640;5.892;2023-04-27T12:35:29;101800;;;22.2;22.0
47710;BME280;33473;51.640;5.892;2023-04-27T12:48:48;101800;;;22.1;22.0
47710;BME280;33473;51.640;5.892;2023-04-27T13:02:08;101800;;;22.7;22.0
47710;BME280;33473;51.640;5.892;2023-04-27T13:15:28;101800;;;23.2;19.0
47710;BME280;33473;51.640;5.892;2023-04-27T13:28:47;101800;;;23.3;21.0
47710;BME280;33473;51.640;5.892;2023-04-27T13:42:07;101800;;;23.1;19.0
47710;BME280;33473;51.640;5.892;2023-04-27T13:55:27;101800;;;23.2;22.0
47710;BME280;33473;51.640;5.892;2023-04-27T14:08:46;101700;;;23.4;21.0
47710;BME280;33473;51.640;5.892;2023-04-27T14:22:06;101700;;;23.4;20.0
47710;BME280;33473;51.640;5.892;2023-04-27T14:35:26;101700;;;23.2;20.0
47710;BME280;33473;51.640;5.892;2023-04-27T14:48:45;101700;;;23.0;20.0
47710;BME280;33473;51.640;5.892;2023-04-27T15:02:05;101700;;;22.5;22.0
47710;BME280;33473;51.640;5.892;2023-04-27T15:15:25;101700;;;22.7;23.0
47710;BME280;33473;51.640;5.892;2023-04-27T15:28:44;101700;;;22.5;20.0
47710;BME280;33473;51.640;5.892;2023-04-27T15:42:04;101600;;;22.6;21.0
47710;BME280;33473;51.640;5.892;2023-04-27T15:55:24;101600;;;22.4;23.0
47710;BME280;33473;51.640;5.892;2023-04-27T16:08:44;101600;;;21.8;21.0
47710;BME280;33473;51.640;5.892;2023-04-27T16:22:03;101600;;;21.6;22.0
47710;BME280;33473;51.640;5.892;2023-04-27T16:35:23;101600;;;21.4;23.0
47710;BME280;33473;51.640;5.892;2023-04-27T16:48:42;101600;;;21.3;22.0
47710;BME280;33473;51.640;5.892;2023-04-27T17:02:02;101600;;;20.8;23.0
47710;BME280;33473;51.640;5.892;2023-04-27T17:15:22;101500;;;20.2;23.0
47710;BME280;33473;51.640;5.892;2023-04-27T17:28:42;101600;;;19.9;23.0
47710;BME280;33473;51.640;5.892;2023-04-27T17:42:01;101500;;;19.5;25.0
47710;BME280;33473;51.640;5.892;2023-04-27T17:55:21;101500;;;19.1;27.0
47710;BME280;33473;51.640;5.892;2023-04-27T18:08:41;101500;;;18.7;28.0
47710;BME280;33473;51.640;5.892;2023-04-27T18:22:00;101500;;;18.3;29.0
47710;BME280;33473;51.640;5.892;2023-04-27T18:35:20;101500;;;17.8;30.0
47710;BME280;33473;51.640;5.892;2023-04-27T18:48:40;101500;;;17.7;30.0
47710;BME280;33473;51.640;5.892;2023-04-27T19:01:59;101500;;;17.4;30.0
47710;BME280;33473;51.640;5.892;2023-04-27T19:15:19;101500;;;17.2;31.0
47710;BME280;33473;51.640;5.892;2023-04-27T19:28:39;101500;;;17.1;31.0
47710;BME280;33473;51.640;5.892;2023-04-27T19:41:58;101500;;;16.9;32.0
47710;BME280;33473;51.640;5.892;2023-04-27T19:55:18;101500;;;16.8;33.0
47710;BME280;33473;51.640;5.892;2023-04-27T20:08:38;101500;;;16.6;32.0
47710;BME280;33473;51.640;5.892;2023-04-27T20:21:57;101500;;;16.5;33.0
47710;BME280;33473;51.640;5.892;2023-04-27T20:35:17;101500;;;16.3;32.0
47710;BME280;33473;51.640;5.892;2023-04-27T20:48:37;101500;;;16.3;33.0
47710;BME280;33473;51.640;5.892;2023-04-27T21:01:56;101400;;;16.3;33.0
47710;BME280;33473;51.640;5.892;2023-04-27T21:15:16;101400;;;16.2;33.0
47710;BME280;33473;51.640;5.892;2023-04-27T21:28:36;101400;;;16.1;33.0
47710;BME280;33473;51.640;5.892;2023-04-27T21:41:55;101400;;;16.1;33.0
47710;BME280;33473;51.640;5.892;2023-04-27T21:55:15;101400;;;16.2;32.0
47710;BME280;33473;51.640;5.892;2023-04-27T22:08:35;101300;;;16.2;33.0
47710;BME280;33473;51.640;5.892;2023-04-27T22:21:54;101300;;;16.3;32.0
47710;BME280;33473;51.640;5.892;2023-04-27T22:35:14;101300;;;16.2;32.0
47710;BME280;33473;51.640;5.892;2023-04-27T22:48:34;101300;;;16.3;33.0
47710;BME280;33473;51.640;5.892;2023-04-27T23:01:53;101300;;;16.2;34.0
47710;BME280;33473;51.640;5.892;2023-04-27T23:15:13;101300;;;16.1;37.0
47710;BME280;33473;51.640;5.892;2023-04-27T23:28:33;101300;;;15.8;38.0
47710;BME280;33473;51.640;5.892;2023-04-27T23:41:52;101300;;;15.7;37.0
47710;BME280;33473;51.640;5.892;2023-04-27T23:55:12;101200;;;15.7;39.0
